createdAt,value
2019-01-17T00:01:46.670Z,12.88
2019-01-17T00:04:22.558Z,13.90
2019-01-17T00:06:57.349Z,7.30
2019-01-17T00:09:31.492Z,8.85
2019-01-17T00:12:13.932Z,15.65
2019-01-17T00:15:02.602Z,12.65
2019-01-17T00:17:48.902Z,14.28
2019-01-17T00:20:20.680Z,9.85
2019-01-17T00:23:09.602Z,13.65
2019-01-17T00:25:43.289Z,7.22
2019-01-17T00:28:16.660Z,10.38
2019-01-17T00:30:54.044Z,8.70
2019-01-17T00:33:28.492Z,9.48
2019-01-17T00:36:18.117Z,8.88
2019-01-17T00:39:04.093Z,11.30
2019-01-17T00:45:08.664Z,12.37
2019-01-17T00:47:56.376Z,8.03
2019-01-17T00:50:44.136Z,7.05
2019-01-17T00:53:17.646Z,6.75
2019-01-17T00:56:07.408Z,9.95
2019-01-17T00:58:46.902Z,7.80
2019-01-17T01:01:22.729Z,7.72
2019-01-17T01:04:12.579Z,8.60
2019-01-17T01:07:00.105Z,8.03
2019-01-17T01:09:42.637Z,7.85
2019-01-17T01:12:28.317Z,9.53
2019-01-17T01:14:59.970Z,11.30
2019-01-17T01:17:32.732Z,9.18
2019-01-17T01:20:17.325Z,6.47
2019-01-17T01:23:05.041Z,7.33
2019-01-17T01:25:44.755Z,10.03
2019-01-17T01:28:29.613Z,9.33
2019-01-17T01:31:17.212Z,7.87
2019-01-17T01:34:06.763Z,9.63
2019-01-17T01:36:54.057Z,6.25
2019-01-17T01:39:33.772Z,6.00
2019-01-17T01:42:28.127Z,9.95
2019-01-17T01:44:59.883Z,5.25
2019-01-17T01:47:42.917Z,7.25
2019-01-17T01:50:23.157Z,9.48
2019-01-17T01:53:07.813Z,7.87
2019-01-17T01:55:37.865Z,10.43
2019-01-17T01:58:09.621Z,5.45
2019-01-17T02:00:39.737Z,13.60
2019-01-17T02:03:56.601Z,12.35
2019-01-17T02:06:41.158Z,7.65
2019-01-17T02:09:14.233Z,10.18
2019-01-17T02:11:46.673Z,6.80
2019-01-17T02:14:18.853Z,10.00
2019-01-17T02:16:49.517Z,9.50
2019-01-17T02:19:21.171Z,9.15
2019-01-17T02:21:51.858Z,12.60
2019-01-17T02:24:28.351Z,13.83
2019-01-17T02:26:56.981Z,9.40
2019-01-17T02:29:32.715Z,7.10
2019-01-17T02:32:03.873Z,7.03
2019-01-17T02:34:33.709Z,8.93
2019-01-17T02:37:03.409Z,9.18
2019-01-17T02:39:33.173Z,9.35
2019-01-17T02:42:02.945Z,10.48
2019-01-17T02:44:32.626Z,8.65
2019-01-17T02:47:02.596Z,5.75
2019-01-17T02:49:32.473Z,7.97
2019-01-17T02:52:03.093Z,8.53
2019-01-17T02:54:35.824Z,8.00
2019-01-17T02:57:06.053Z,7.15
2019-01-17T02:59:37.677Z,9.58
2019-01-17T03:02:08.363Z,8.23
2019-01-17T03:04:38.567Z,15.00
2019-01-17T03:07:09.256Z,8.60
2019-01-17T03:09:38.945Z,8.30
2019-01-17T03:12:18.517Z,10.70
2019-01-17T03:14:49.106Z,6.47
2019-01-17T03:17:19.015Z,7.05
2019-01-17T03:19:48.709Z,6.35
2019-01-17T03:22:18.397Z,6.67
2019-01-17T03:24:48.105Z,9.10
2019-01-17T03:27:17.801Z,7.50
2019-01-17T03:29:47.766Z,9.00
2019-01-17T03:32:18.531Z,7.70
2019-01-17T03:34:52.742Z,11.03
2019-01-17T03:37:23.843Z,8.48
2019-01-17T03:39:53.522Z,5.40
2019-01-17T03:42:24.169Z,5.83
2019-01-17T03:44:53.882Z,17.48
2019-01-17T03:47:24.310Z,6.10
2019-01-17T03:49:54.415Z,8.10
2019-01-17T03:52:24.242Z,6.20
2019-01-17T03:54:54.181Z,7.08
2019-01-17T03:57:24.004Z,4.22
2019-01-17T04:00:00.903Z,8.45
2019-01-17T04:02:31.789Z,11.53
2019-01-17T04:05:02.458Z,3.77
2019-01-17T04:07:32.413Z,5.87
2019-01-17T04:10:02.667Z,5.15
2019-01-17T04:12:32.506Z,6.17
2019-01-17T04:15:03.487Z,4.25
2019-01-17T04:17:33.334Z,13.53
2019-01-17T04:20:03.094Z,8.95
2019-01-17T04:22:34.930Z,7.75
2019-01-17T04:25:07.378Z,8.75
2019-01-17T04:27:37.486Z,6.87
2019-01-17T04:30:14.334Z,10.65
2019-01-17T04:32:44.257Z,5.95
2019-01-17T04:35:14.278Z,8.18
2019-01-17T04:37:48.193Z,5.67
2019-01-17T04:40:17.954Z,6.20
2019-01-17T04:42:58.977Z,8.58
2019-01-17T04:45:29.089Z,5.30
2019-01-17T04:48:00.145Z,10.35
2019-01-17T04:50:30.213Z,5.83
2019-01-17T04:53:06.153Z,5.03
2019-01-17T04:55:36.279Z,7.10
2019-01-17T04:58:12.438Z,7.25
2019-01-17T05:00:44.461Z,7.30
2019-01-17T05:03:14.811Z,5.83
2019-01-17T05:05:45.930Z,5.85
2019-01-17T05:08:17.727Z,11.57
2019-01-17T05:10:49.714Z,15.00
2019-01-17T05:13:21.807Z,7.83
2019-01-17T05:15:57.754Z,14.78
2019-01-17T05:18:27.841Z,5.42
2019-01-17T05:20:57.943Z,5.72
2019-01-17T05:23:34.119Z,4.50
2019-01-17T05:26:02.654Z,7.95
2019-01-17T05:28:43.692Z,6.33
2019-01-17T05:31:15.802Z,14.60
2019-01-17T05:33:45.885Z,6.42
2019-01-17T05:36:17.698Z,6.10
2019-01-17T05:38:58.628Z,4.35
2019-01-17T05:41:29.367Z,7.58
2019-01-17T05:43:59.322Z,8.48
2019-01-17T05:46:32.449Z,6.00
2019-01-17T05:49:02.531Z,5.10
2019-01-17T05:51:45.151Z,4.95
2019-01-17T05:54:15.245Z,6.87
2019-01-17T05:56:45.081Z,5.17
2019-01-17T05:59:15.035Z,5.47
2019-01-17T06:01:44.850Z,9.98
2019-01-17T06:04:16.858Z,6.47
2019-01-17T06:06:46.678Z,7.97
2019-01-17T06:09:16.642Z,8.78
2019-01-17T06:11:46.718Z,8.68
2019-01-17T06:14:16.530Z,5.70
2019-01-17T06:16:53.205Z,9.35
2019-01-17T06:19:24.391Z,6.78
2019-01-17T06:22:03.217Z,4.78
2019-01-17T06:24:34.945Z,7.47
2019-01-17T06:27:06.053Z,5.22
2019-01-17T06:29:43.225Z,6.12
2019-01-17T06:32:13.214Z,5.78
2019-01-17T06:34:42.909Z,9.00
2019-01-17T06:37:14.849Z,9.60
2019-01-17T06:39:45.062Z,10.38
2019-01-17T06:42:16.117Z,7.75
2019-01-17T06:44:51.753Z,7.87
2019-01-17T06:47:22.465Z,12.25
2019-01-17T06:49:52.405Z,6.85
2019-01-17T06:52:28.125Z,7.15
2019-01-17T06:54:57.794Z,5.60
2019-01-17T06:57:27.759Z,7.35
2019-01-17T06:59:59.501Z,6.85
2019-01-17T07:02:31.396Z,9.83
2019-01-17T07:05:07.665Z,9.15
2019-01-17T07:07:43.283Z,9.68
2019-01-17T07:10:18.111Z,8.98
2019-01-17T07:12:50.136Z,7.60
2019-01-17T07:15:19.964Z,14.33
2019-01-17T07:17:49.908Z,17.95
2019-01-17T07:20:19.983Z,9.50
2019-01-17T07:22:50.146Z,8.30
2019-01-17T07:25:19.970Z,8.33
2019-01-17T07:27:50.920Z,9.85
2019-01-17T07:30:23.086Z,15.80
2019-01-17T07:32:53.115Z,10.05
2019-01-17T07:35:27.319Z,8.85
2019-01-17T07:38:00.458Z,8.95
2019-01-17T07:40:30.278Z,13.20
2019-01-17T07:43:00.274Z,7.65
2019-01-17T07:45:39.206Z,7.62
2019-01-17T07:48:13.266Z,9.80
2019-01-17T07:50:45.786Z,8.10
2019-01-17T07:53:19.673Z,7.15
2019-01-17T07:55:51.718Z,11.43
2019-01-17T07:58:28.360Z,7.22
2019-01-17T08:00:58.306Z,9.00
2019-01-17T08:03:30.126Z,7.03
2019-01-17T08:06:00.966Z,11.90
2019-01-17T08:08:30.782Z,5.67
2019-01-17T08:11:04.804Z,14.80
2019-01-17T08:13:34.850Z,12.28
2019-01-17T08:16:05.838Z,10.80
2019-01-17T08:18:36.558Z,6.58
2019-01-17T08:21:06.532Z,15.23
2019-01-17T08:23:37.568Z,13.08
2019-01-17T08:26:07.379Z,8.75
2019-01-17T08:28:37.062Z,12.28
2019-01-17T08:31:06.770Z,11.88
2019-01-17T08:33:36.722Z,8.83
2019-01-17T08:36:09.864Z,8.13
2019-01-17T08:38:39.948Z,12.78
2019-01-17T08:41:09.997Z,11.12
2019-01-17T08:43:41.918Z,8.30
2019-01-17T08:46:12.100Z,6.67
2019-01-17T08:48:45.195Z,12.55
2019-01-17T08:51:16.312Z,23.87
2019-01-17T08:53:53.066Z,8.05
2019-01-17T08:56:23.010Z,7.28
2019-01-17T08:58:53.096Z,7.87
2019-01-17T09:01:23.206Z,11.88
2019-01-17T09:03:53.026Z,9.50
2019-01-17T09:06:22.778Z,12.80
2019-01-17T09:08:52.506Z,8.75
2019-01-17T09:11:33.562Z,21.20
2019-01-17T09:14:06.532Z,7.30
2019-01-17T09:16:43.497Z,8.88
2019-01-17T09:19:13.342Z,9.50
2019-01-17T09:21:43.130Z,12.65
2019-01-17T09:24:13.066Z,16.10
2019-01-17T09:26:44.890Z,11.93
2019-01-17T09:29:14.695Z,9.55
2019-01-17T09:31:44.640Z,9.88
2019-01-17T09:34:20.503Z,6.78
2019-01-17T09:36:53.482Z,9.15
2019-01-17T09:39:23.375Z,15.68
2019-01-17T09:42:02.425Z,6.30
2019-01-17T09:44:32.114Z,9.68
2019-01-17T09:47:02.140Z,8.05
2019-01-17T09:49:44.071Z,6.95
2019-01-17T09:52:14.110Z,13.15
2019-01-17T09:54:45.043Z,5.58
2019-01-17T09:57:17.971Z,10.43
2019-01-17T09:59:47.989Z,8.63
2019-01-17T10:02:18.082Z,6.55
2019-01-17T10:04:47.986Z,9.90
2019-01-17T10:07:17.686Z,12.80
2019-01-17T10:09:47.710Z,11.18
2019-01-17T10:12:17.598Z,9.45
2019-01-17T10:14:47.551Z,7.53
2019-01-17T10:17:20.443Z,10.88
2019-01-17T10:20:03.772Z,8.08
2019-01-17T10:22:42.346Z,10.38
2019-01-17T10:25:37.612Z,9.10
2019-01-17T10:28:10.591Z,8.38
2019-01-17T10:31:05.865Z,10.98
2019-01-17T10:33:56.895Z,11.88
2019-01-17T10:36:50.683Z,7.03
2019-01-17T10:39:52.783Z,6.50
2019-01-17T10:42:48.127Z,7.10
2019-01-17T10:45:28.439Z,6.17
2019-01-17T10:48:10.652Z,7.80
2019-01-17T10:51:12.510Z,7.00
2019-01-17T10:54:06.070Z,9.63
2019-01-17T10:56:41.569Z,6.78
2019-01-17T10:59:25.925Z,11.45
2019-01-17T11:02:14.646Z,8.73
2019-01-17T11:05:12.588Z,12.28
2019-01-17T11:08:00.770Z,5.80
2019-01-17T11:10:37.359Z,14.00
2019-01-17T11:13:37.954Z,6.70
2019-01-17T11:16:42.892Z,10.43
2019-01-17T11:19:45.074Z,7.15
2019-01-17T11:22:32.974Z,4.50
2019-01-17T11:25:17.708Z,8.78
2019-01-17T11:28:12.011Z,8.33
2019-01-17T11:31:22.547Z,6.57
2019-01-17T11:34:17.315Z,7.60
2019-01-17T11:36:54.417Z,7.83
2019-01-17T11:39:49.963Z,7.00
2019-01-17T11:42:39.639Z,6.50
2019-01-17T11:45:14.430Z,7.87
2019-01-17T11:48:00.628Z,11.40
2019-01-17T11:50:50.347Z,4.05
2019-01-17T11:53:25.938Z,3.60
2019-01-17T11:56:18.664Z,5.20
2019-01-17T11:59:05.923Z,4.90
2019-01-17T12:01:48.279Z,5.72
2019-01-17T12:04:31.515Z,4.50
2019-01-17T12:07:04.674Z,5.08
2019-01-17T12:09:34.664Z,4.20
2019-01-17T12:12:05.403Z,3.43
2019-01-17T12:14:35.512Z,6.57
2019-01-17T12:17:10.656Z,3.87
2019-01-17T12:19:40.479Z,3.73
2019-01-17T12:22:10.573Z,4.07
2019-01-17T12:24:40.669Z,5.10
2019-01-17T12:27:11.703Z,3.63
2019-01-17T12:29:41.539Z,2.70
2019-01-17T12:32:14.495Z,2.90
2019-01-17T12:34:47.287Z,3.90
2019-01-17T12:37:17.380Z,1.82
2019-01-17T12:39:47.465Z,2.27
2019-01-17T12:42:17.559Z,4.12
2019-01-17T12:44:48.671Z,1.90
2019-01-17T12:47:21.023Z,2.10
2019-01-17T12:49:56.800Z,2.20
2019-01-17T12:52:33.961Z,2.63
2019-01-17T12:55:05.145Z,4.72
2019-01-17T12:57:41.003Z,2.10
2019-01-17T13:00:17.815Z,4.85
2019-01-17T13:02:49.996Z,4.03
2019-01-17T13:05:20.831Z,2.60
2019-01-17T13:07:50.786Z,4.20
2019-01-17T13:10:26.715Z,4.58
2019-01-17T13:12:56.651Z,2.52
2019-01-17T13:15:30.753Z,5.17
2019-01-17T13:18:00.709Z,2.80
2019-01-17T13:20:30.867Z,1.85
2019-01-17T13:23:02.071Z,2.40
2019-01-17T13:25:36.309Z,0.80
2019-01-17T13:28:07.211Z,1.90
2019-01-17T13:30:42.943Z,1.20
2019-01-17T13:33:12.914Z,1.72
2019-01-17T13:35:42.971Z,1.25
2019-01-17T13:38:12.935Z,1.30
2019-01-17T13:40:43.040Z,0.78
2019-01-17T13:43:14.049Z,1.42
2019-01-17T13:45:44.133Z,1.62
2019-01-17T13:48:14.959Z,1.37
2019-01-17T13:50:44.906Z,2.50
2019-01-17T13:53:14.723Z,1.05
2019-01-17T13:55:51.469Z,0.80
2019-01-17T13:58:23.467Z,4.30
2019-01-17T14:00:54.255Z,1.35
2019-01-17T14:03:28.067Z,2.08
2019-01-17T14:05:58.019Z,1.87
2019-01-17T14:08:34.907Z,2.12
2019-01-17T14:11:05.803Z,0.90
2019-01-17T14:13:35.752Z,1.50
2019-01-17T14:16:05.943Z,6.28
2019-01-17T14:18:42.419Z,2.95
2019-01-17T14:21:14.336Z,1.77
2019-01-17T14:23:50.727Z,1.50
2019-01-17T14:26:22.739Z,7.50
2019-01-17T14:28:53.527Z,1.32
2019-01-17T14:31:23.510Z,1.20
2019-01-17T14:33:55.538Z,0.98
2019-01-17T14:36:31.908Z,0.88
2019-01-17T14:39:02.001Z,1.30
2019-01-17T14:41:32.083Z,3.25
2019-01-17T14:44:02.161Z,1.30
2019-01-17T14:46:34.687Z,1.35
2019-01-17T14:49:04.767Z,0.70
2019-01-17T14:51:34.841Z,1.40
2019-01-17T14:54:13.811Z,2.15
2019-01-17T14:56:45.825Z,4.00
2019-01-17T14:59:15.651Z,0.80
2019-01-17T15:01:45.347Z,2.77
2019-01-17T15:04:15.384Z,0.70
2019-01-17T15:06:45.743Z,0.70
2019-01-17T15:09:17.864Z,0.62
2019-01-17T15:11:48.924Z,0.70
2019-01-17T15:14:20.747Z,0.85
2019-01-17T15:16:51.405Z,0.90
2019-01-17T15:19:23.302Z,3.22
2019-01-17T15:21:53.410Z,0.72
2019-01-17T15:24:29.805Z,1.72
2019-01-17T15:26:59.628Z,0.95
2019-01-17T15:29:30.269Z,1.65
2019-01-17T15:32:01.148Z,0.70
2019-01-17T15:34:36.180Z,2.90
2019-01-17T15:37:06.884Z,1.90
2019-01-17T15:39:39.862Z,0.68
2019-01-17T15:42:13.948Z,0.90
2019-01-17T15:44:48.812Z,5.80
2019-01-17T15:47:27.551Z,1.07
2019-01-17T15:50:01.140Z,0.85
2019-01-17T15:52:36.864Z,0.70
2019-01-17T15:55:16.412Z,0.65
2019-01-17T15:57:47.104Z,1.40
2019-01-17T16:00:24.157Z,1.30
2019-01-17T16:02:54.244Z,1.25
2019-01-17T16:05:24.992Z,1.30
2019-01-17T16:07:54.692Z,2.83
2019-01-17T16:10:25.365Z,0.90
2019-01-17T16:13:05.165Z,2.75
2019-01-17T16:15:35.361Z,1.00
2019-01-17T16:18:06.469Z,1.40
2019-01-17T16:20:50.371Z,6.78
2019-01-17T16:23:21.396Z,3.25
2019-01-17T16:25:51.546Z,3.80
2019-01-17T16:28:22.601Z,1.77
2019-01-17T16:31:01.257Z,1.25
2019-01-17T16:33:31.388Z,1.10
2019-01-17T16:36:01.472Z,1.80
2019-01-17T16:38:31.552Z,2.00
2019-01-17T16:41:06.692Z,5.10
2019-01-17T16:43:37.761Z,4.00
2019-01-17T16:46:07.937Z,8.03
2019-01-17T16:48:37.768Z,23.52
2019-01-17T16:51:07.710Z,7.33
2019-01-17T16:53:39.796Z,19.45
2019-01-17T16:56:09.616Z,3.25
2019-01-17T16:58:40.280Z,0.98
2019-01-17T17:01:10.237Z,2.40
2019-01-17T17:03:41.032Z,1.25
2019-01-17T17:06:12.661Z,1.05
2019-01-17T17:08:44.650Z,2.55
2019-01-17T17:11:15.815Z,0.78
2019-01-17T17:13:45.914Z,2.27
2019-01-17T17:16:18.347Z,1.00
2019-01-17T17:18:48.288Z,1.00
2019-01-17T17:21:19.112Z,0.70
2019-01-17T17:23:49.108Z,2.05
2019-01-17T17:26:30.928Z,1.52
2019-01-17T17:29:06.488Z,1.45
2019-01-17T17:31:37.136Z,0.90
2019-01-17T17:34:09.116Z,3.20
2019-01-17T17:36:40.231Z,1.45
2019-01-17T17:39:11.108Z,1.00
2019-01-17T17:41:48.856Z,1.98
2019-01-17T17:44:18.572Z,1.30
2019-01-17T17:46:51.568Z,1.40
2019-01-17T17:49:21.726Z,0.90
2019-01-17T17:51:51.884Z,5.55
2019-01-17T17:54:23.911Z,1.70
2019-01-17T17:56:55.949Z,2.08
2019-01-17T17:59:29.416Z,1.20
2019-01-17T18:02:05.589Z,1.87
2019-01-17T18:04:35.668Z,1.02
2019-01-17T18:07:07.759Z,0.90
2019-01-17T18:09:37.736Z,1.02
2019-01-17T18:12:08.432Z,3.05
2019-01-17T18:14:40.260Z,1.80
2019-01-17T18:17:28.057Z,4.33
2019-01-17T18:19:57.920Z,2.55
2019-01-17T18:22:29.848Z,4.75
2019-01-17T18:25:01.992Z,2.00
2019-01-17T18:27:32.120Z,6.47
2019-01-17T18:30:07.332Z,0.72
2019-01-17T18:32:40.762Z,1.67
2019-01-17T18:35:10.912Z,4.45
2019-01-17T18:37:58.912Z,1.50
2019-01-17T18:40:31.836Z,3.25
2019-01-17T18:43:03.768Z,1.05
2019-01-17T18:45:34.320Z,0.90
2019-01-17T18:48:07.357Z,2.02
2019-01-17T18:50:38.091Z,1.82
2019-01-17T18:53:08.114Z,2.65
2019-01-17T18:55:38.896Z,1.02
2019-01-17T18:58:08.624Z,1.55
2019-01-17T19:00:41.656Z,1.35
2019-01-17T19:03:12.428Z,3.12
2019-01-17T19:05:42.148Z,4.05
2019-01-17T19:08:19.008Z,2.02
2019-01-17T19:10:54.840Z,1.82
2019-01-17T19:13:28.744Z,4.53
2019-01-17T19:16:00.686Z,1.98
2019-01-17T19:18:32.505Z,3.45
2019-01-17T19:21:03.236Z,2.05
2019-01-17T19:23:40.134Z,1.80
2019-01-17T19:26:12.013Z,1.57
2019-01-17T19:28:42.720Z,1.57
2019-01-17T19:31:16.517Z,2.25
2019-01-17T19:33:55.568Z,3.62
2019-01-17T19:36:26.676Z,3.50
2019-01-17T19:38:59.812Z,5.33
2019-01-17T19:41:42.948Z,3.12
2019-01-17T19:44:15.698Z,2.08
2019-01-17T19:47:07.446Z,2.15
2019-01-17T19:49:49.752Z,1.52
2019-01-17T19:52:23.132Z,2.67
2019-01-17T19:54:54.869Z,1.07
2019-01-17T19:57:35.242Z,1.57
2019-01-17T20:00:09.213Z,1.00
2019-01-17T20:02:38.904Z,0.90
2019-01-17T20:05:11.277Z,1.00
2019-01-17T20:07:49.610Z,1.72
2019-01-17T20:10:31.245Z,0.80
2019-01-17T20:13:06.916Z,1.17
2019-01-17T20:15:40.233Z,1.80
2019-01-17T20:18:10.832Z,1.40
2019-01-17T20:20:42.516Z,1.95
2019-01-17T20:23:12.202Z,1.57
2019-01-17T20:25:43.446Z,2.02
2019-01-17T20:28:15.504Z,1.75
2019-01-17T20:30:48.117Z,1.90
2019-01-17T20:33:19.830Z,3.98
2019-01-17T20:35:49.792Z,1.65
2019-01-17T20:38:21.787Z,3.58
2019-01-17T20:40:58.148Z,2.58
2019-01-17T20:43:25.633Z,2.20
2019-01-17T20:46:00.416Z,1.90
2019-01-17T20:48:36.288Z,2.62
2019-01-17T20:51:09.494Z,3.60
2019-01-17T20:53:42.392Z,2.30
2019-01-17T20:56:14.005Z,1.80
2019-01-17T20:58:43.709Z,4.47
2019-01-17T21:01:34.892Z,2.22
2019-01-17T21:04:08.581Z,1.27
2019-01-17T21:06:38.552Z,1.90
2019-01-17T21:09:10.453Z,1.85
2019-01-17T21:11:54.421Z,2.70
2019-01-17T21:14:26.479Z,1.92
2019-01-17T21:16:59.881Z,2.00
2019-01-17T21:19:38.021Z,2.72
2019-01-17T21:25:19.738Z,2.62
2019-01-17T21:28:00.929Z,3.12
2019-01-17T21:30:32.005Z,2.70
2019-01-17T21:33:11.600Z,2.58
2019-01-17T21:35:45.140Z,3.92
2019-01-17T21:38:21.029Z,0.80
2019-01-17T21:40:51.046Z,0.90
2019-01-17T21:43:26.995Z,0.78
2019-01-17T21:45:57.080Z,1.00
2019-01-17T21:48:41.094Z,1.32
2019-01-17T21:51:16.232Z,1.02
2019-01-17T21:53:46.054Z,1.35
2019-01-17T21:56:25.745Z,1.80
2019-01-17T21:59:02.571Z,1.27
2019-01-17T22:01:32.798Z,1.75
2019-01-17T22:04:02.921Z,4.65
2019-01-17T22:06:34.970Z,1.12
2019-01-17T22:09:07.449Z,1.82
2019-01-17T22:11:37.390Z,1.55
2019-01-17T22:14:09.184Z,1.10
2019-01-17T22:16:39.853Z,2.17
2019-01-17T22:19:18.926Z,1.82
2019-01-17T22:21:55.629Z,1.70
2019-01-17T22:24:30.771Z,1.30
2019-01-17T22:27:23.861Z,2.90
2019-01-17T22:30:29.152Z,1.90
2019-01-17T22:33:03.377Z,1.80
2019-01-17T22:36:11.418Z,2.17
2019-01-17T22:50:44.814Z,4.53
2019-01-17T22:54:38.782Z,3.92
2019-01-17T22:57:16.721Z,1.70
2019-01-17T22:59:48.827Z,4.80
2019-01-17T23:02:33.248Z,1.80
2019-01-17T23:05:26.817Z,3.15
2019-01-17T23:08:08.914Z,1.20
2019-01-17T23:10:42.757Z,1.37
2019-01-17T23:13:42.382Z,1.75
2019-01-17T23:16:38.582Z,1.72
2019-01-17T23:20:03.341Z,1.67
2019-01-17T23:23:01.919Z,2.47
2019-01-17T23:25:41.845Z,1.62
2019-01-17T23:29:02.393Z,2.52
2019-01-17T23:31:39.441Z,2.15
2019-01-17T23:34:09.325Z,9.88
2019-01-17T23:36:48.882Z,3.25
2019-01-17T23:39:46.709Z,1.60
2019-01-17T23:43:02.845Z,1.65
2019-01-17T23:45:54.010Z,1.65
2019-01-17T23:48:28.101Z,10.98
2019-01-17T23:51:00.157Z,3.95
2019-01-17T23:53:35.042Z,4.53
2019-01-17T23:56:06.666Z,2.67
2019-01-17T23:58:40.153Z,3.12
